createdAt,value
2017-09-10T00:00:41.110Z,9.00
2017-09-10T00:01:41.080Z,10.00
2017-09-10T00:02:41.063Z,12.00
2017-09-10T00:03:41.061Z,13.00
2017-09-10T00:04:41.070Z,11.00
2017-09-10T00:05:41.068Z,11.00
2017-09-10T00:06:41.067Z,10.00
2017-09-10T00:07:41.070Z,11.00
2017-09-10T00:08:41.115Z,20.00
2017-09-10T00:09:41.145Z,14.00
2017-09-10T00:10:41.071Z,10.00
2017-09-10T00:11:41.117Z,10.00
2017-09-10T00:12:41.121Z,22.00
2017-09-10T00:13:41.148Z,12.00
2017-09-10T00:14:41.117Z,12.00
2017-09-10T00:15:41.072Z,12.00
2017-09-10T00:16:41.139Z,10.00
2017-09-10T00:17:41.124Z,10.00
2017-09-10T00:18:41.073Z,20.00
2017-09-10T00:19:41.127Z,10.00
2017-09-10T00:20:41.122Z,8.00
2017-09-10T00:21:41.075Z,11.00
2017-09-10T00:22:41.029Z,13.00
2017-09-10T00:23:41.058Z,10.00
2017-09-10T00:24:41.073Z,9.00
2017-09-10T00:25:41.077Z,9.00
2017-09-10T00:26:41.131Z,11.00
2017-09-10T00:27:41.125Z,20.00
2017-09-10T00:28:41.081Z,20.00
2017-09-10T00:29:41.078Z,13.00
2017-09-10T00:30:41.084Z,11.00
2017-09-10T00:31:41.061Z,13.00
2017-09-10T00:32:41.077Z,26.00
2017-09-10T00:33:41.036Z,9.00
2017-09-10T00:34:41.098Z,15.00
2017-09-10T00:35:41.031Z,13.00
2017-09-10T00:36:41.122Z,18.00
2017-09-10T00:37:41.088Z,12.00
2017-09-10T00:38:41.066Z,12.00
2017-09-10T00:39:41.262Z,17.00
2017-09-10T00:40:41.243Z,13.00
2017-09-10T00:41:41.091Z,18.00
2017-09-10T00:42:41.135Z,10.00
2017-09-10T00:43:41.088Z,7.00
2017-09-10T00:44:41.091Z,8.00
2017-09-10T00:45:41.085Z,8.00
2017-09-10T00:46:41.071Z,9.00
2017-09-10T00:47:41.092Z,9.00
2017-09-10T00:48:41.111Z,10.00
2017-09-10T00:49:41.094Z,11.00
2017-09-10T00:50:41.071Z,8.00
2017-09-10T00:51:41.137Z,7.00
2017-09-10T00:52:41.093Z,9.00
2017-09-10T00:53:41.095Z,8.00
2017-09-10T00:54:41.147Z,16.00
2017-09-10T00:55:41.096Z,10.00
2017-09-10T00:56:41.141Z,17.00
2017-09-10T00:57:41.047Z,8.00
2017-09-10T00:58:41.146Z,19.00
2017-09-10T00:59:41.106Z,8.00
2017-09-10T01:00:41.100Z,10.00
2017-09-10T01:01:41.046Z,10.00
2017-09-10T01:02:41.097Z,8.00
2017-09-10T01:03:41.079Z,10.00
2017-09-10T01:04:41.135Z,8.00
2017-09-10T01:05:41.047Z,9.00
2017-09-10T01:06:41.140Z,9.00
2017-09-10T01:07:41.147Z,9.00
2017-09-10T01:08:41.076Z,7.00
2017-09-10T01:09:41.098Z,9.00
2017-09-10T01:10:41.104Z,7.00
2017-09-10T01:11:41.120Z,8.00
2017-09-10T01:12:41.104Z,10.00
2017-09-10T01:13:41.105Z,8.00
2017-09-10T01:14:41.150Z,8.00
2017-09-10T01:15:41.157Z,8.00
2017-09-10T01:16:41.108Z,18.00
2017-09-10T01:17:41.121Z,8.00
2017-09-10T01:18:41.108Z,10.00
2017-09-10T01:19:41.177Z,11.00
2017-09-10T01:20:41.059Z,8.00
2017-09-10T01:21:41.055Z,7.00
2017-09-10T01:22:41.159Z,9.00
2017-09-10T01:23:41.165Z,13.00
2017-09-10T01:24:41.162Z,7.00
2017-09-10T01:25:41.091Z,9.00
2017-09-10T01:26:41.121Z,8.00
2017-09-10T01:27:41.167Z,15.00
2017-09-10T01:28:41.159Z,9.00
2017-09-10T01:29:41.058Z,8.00
2017-09-10T01:30:41.168Z,9.00
2017-09-10T01:31:41.132Z,9.00
2017-09-10T01:32:41.166Z,11.00
2017-09-10T01:33:41.123Z,14.00
2017-09-10T01:34:41.121Z,10.00
2017-09-10T01:35:41.169Z,9.00
2017-09-10T01:36:41.121Z,19.00
2017-09-10T01:37:41.117Z,8.00
2017-09-10T01:38:41.175Z,18.00
2017-09-10T01:39:41.131Z,11.00
2017-09-10T01:40:41.193Z,9.00
2017-09-10T01:41:41.125Z,11.00
2017-09-10T01:42:41.086Z,10.00
2017-09-10T01:43:41.125Z,9.00
2017-09-10T01:45:41.177Z,8.00
2017-09-10T01:46:41.170Z,16.00
2017-09-10T01:47:41.108Z,9.00
2017-09-10T01:48:41.169Z,9.00
2017-09-10T01:49:41.174Z,7.00
2017-09-10T01:50:41.181Z,18.00
2017-09-10T01:51:41.184Z,9.00
2017-09-10T01:52:41.180Z,6.00
2017-09-10T01:53:41.143Z,9.00
2017-09-10T01:54:41.135Z,14.00
2017-09-10T01:55:41.131Z,9.00
2017-09-10T01:56:41.181Z,7.00
2017-09-10T01:57:41.133Z,15.00
2017-09-10T01:58:41.184Z,19.00
2017-09-10T01:59:41.186Z,9.00
2017-09-10T02:00:41.136Z,6.00
2017-09-10T02:01:41.142Z,8.00
2017-09-10T02:02:41.135Z,17.00
2017-09-10T02:03:41.184Z,15.00
2017-09-10T02:04:41.188Z,11.00
2017-09-10T02:05:41.186Z,7.00
2017-09-10T02:06:41.205Z,8.00
2017-09-10T02:07:41.138Z,9.00
2017-09-10T02:08:41.142Z,9.00
2017-09-10T02:09:41.140Z,9.00
2017-09-10T02:10:41.145Z,19.00
2017-09-10T02:11:41.145Z,10.00
2017-09-10T02:12:41.141Z,8.00
2017-09-10T02:13:41.138Z,7.00
2017-09-10T02:14:41.145Z,8.00
2017-09-10T02:15:41.195Z,14.00
2017-09-10T02:16:41.144Z,10.00
2017-09-10T02:17:41.215Z,15.00
2017-09-10T02:18:41.196Z,8.00
2017-09-10T02:19:45.616Z,8.00
2017-09-10T02:20:41.101Z,9.00
2017-09-10T02:21:41.104Z,7.00
2017-09-10T02:22:41.197Z,9.00
2017-09-10T02:23:41.153Z,8.00
2017-09-10T02:24:41.165Z,9.00
2017-09-10T02:25:41.103Z,8.00
2017-09-10T02:26:41.155Z,8.00
2017-09-10T02:27:41.199Z,16.00
2017-09-10T02:28:41.197Z,10.00
2017-09-10T02:29:41.200Z,10.00
2017-09-10T02:30:41.222Z,11.00
2017-09-10T02:31:41.226Z,10.00
2017-09-10T02:32:41.157Z,8.00
2017-09-10T02:33:41.156Z,8.00
2017-09-10T02:34:41.159Z,18.00
2017-09-10T02:35:41.200Z,10.00
2017-09-10T02:36:41.204Z,10.00
2017-09-10T02:37:41.207Z,8.00
2017-09-10T02:38:41.199Z,7.00
2017-09-10T02:39:41.160Z,8.00
2017-09-10T02:40:41.120Z,8.00
2017-09-10T02:41:41.157Z,8.00
2017-09-10T02:42:41.130Z,10.00
2017-09-10T02:43:41.167Z,8.00
2017-09-10T02:44:41.111Z,7.00
2017-09-10T02:45:41.125Z,8.00
2017-09-10T02:46:41.110Z,9.00
2017-09-10T02:47:41.176Z,8.00
2017-09-10T02:48:41.175Z,9.00
2017-09-10T02:49:41.175Z,8.00
2017-09-10T02:50:41.212Z,10.00
2017-09-10T02:51:41.169Z,8.00
2017-09-10T02:52:41.236Z,8.00
2017-09-10T02:53:41.219Z,9.00
2017-09-10T02:54:41.181Z,9.00
2017-09-10T02:55:41.171Z,9.00
2017-09-10T02:56:41.171Z,9.00
2017-09-10T02:57:41.173Z,7.00
2017-09-10T02:58:41.170Z,7.00
2017-09-10T02:59:41.220Z,10.00
2017-09-10T03:00:41.106Z,8.00
2017-09-10T03:01:41.115Z,9.00
2017-09-10T03:02:41.124Z,7.00
2017-09-10T03:03:41.092Z,8.00
2017-09-10T03:04:41.138Z,9.00
2017-09-10T03:05:41.121Z,8.00
2017-09-10T03:06:41.142Z,9.00
2017-09-10T03:07:41.140Z,6.00
2017-09-10T03:08:41.137Z,9.00
2017-09-10T03:09:41.138Z,7.00
2017-09-10T03:10:41.170Z,8.00
2017-09-10T03:11:41.113Z,7.00
2017-09-10T03:12:41.115Z,7.00
2017-09-10T03:13:41.141Z,7.00
2017-09-10T03:14:41.148Z,15.00
2017-09-10T03:15:41.117Z,9.00
2017-09-10T03:16:41.118Z,9.00
2017-09-10T03:17:41.124Z,8.00
2017-09-10T03:18:41.178Z,10.00
2017-09-10T03:19:41.118Z,7.00
2017-09-10T03:20:41.179Z,8.00
2017-09-10T03:21:41.284Z,8.00
2017-09-10T03:22:41.188Z,7.00
2017-09-10T03:23:41.126Z,10.00
2017-09-10T03:24:41.187Z,9.00
2017-09-10T03:25:41.234Z,8.00
2017-09-10T03:26:41.257Z,8.00
2017-09-10T03:27:41.236Z,6.00
2017-09-10T03:28:41.189Z,8.00
2017-09-10T03:29:41.236Z,8.00
2017-09-10T03:30:41.236Z,7.00
2017-09-10T03:31:41.193Z,7.00
2017-09-10T03:32:41.234Z,7.00
2017-09-10T03:33:41.147Z,9.00
2017-09-10T03:34:41.273Z,10.00
2017-09-10T03:35:41.206Z,7.00
2017-09-10T03:36:41.241Z,7.00
2017-09-10T03:37:41.243Z,9.00
2017-09-10T03:38:41.357Z,10.00
2017-09-10T03:39:41.243Z,6.00
2017-09-10T03:40:41.239Z,7.00
2017-09-10T03:41:41.188Z,8.00
2017-09-10T03:42:41.247Z,7.00
2017-09-10T03:43:41.190Z,11.00
2017-09-10T03:44:41.197Z,9.00
2017-09-10T03:45:41.195Z,8.00
2017-09-10T03:46:41.198Z,10.00
2017-09-10T03:47:41.199Z,7.00
2017-09-10T03:48:41.205Z,8.00
2017-09-10T03:49:41.266Z,9.00
2017-09-10T03:50:41.201Z,8.00
2017-09-10T03:51:41.156Z,8.00
2017-09-10T03:52:41.301Z,8.00
2017-09-10T03:53:41.251Z,9.00
2017-09-10T03:54:41.272Z,8.00
2017-09-10T03:55:41.212Z,7.00
2017-09-10T03:56:41.206Z,9.00
2017-09-10T03:57:41.207Z,10.00
2017-09-10T03:58:41.162Z,9.00
2017-09-10T03:59:41.210Z,10.00
2017-09-10T04:00:41.243Z,9.00
2017-09-10T04:01:41.243Z,10.00
2017-09-10T04:02:41.173Z,7.00
2017-09-10T04:03:41.207Z,10.00
2017-09-10T04:04:41.160Z,10.00
2017-09-10T04:05:41.187Z,8.00
2017-09-10T04:06:41.159Z,11.00
2017-09-10T04:07:41.203Z,10.00
2017-09-10T04:08:41.220Z,9.00
2017-09-10T04:09:41.249Z,10.00
2017-09-10T04:10:41.213Z,9.00
2017-09-10T04:11:41.214Z,7.00
2017-09-10T04:12:41.166Z,10.00
2017-09-10T04:13:41.281Z,5.00
2017-09-10T04:14:41.228Z,8.00
2017-09-10T04:15:41.263Z,11.00
2017-09-10T04:16:41.171Z,10.00
2017-09-10T04:17:41.221Z,9.00
2017-09-10T04:18:41.262Z,11.00
2017-09-10T04:19:41.262Z,11.00
2017-09-10T04:20:41.168Z,7.00
2017-09-10T04:21:41.210Z,8.00
2017-09-10T04:22:41.249Z,8.00
2017-09-10T04:23:41.181Z,8.00
2017-09-10T04:24:41.256Z,9.00
2017-09-10T04:25:41.231Z,7.00
2017-09-10T04:26:41.264Z,9.00
2017-09-10T04:27:41.186Z,8.00
2017-09-10T04:28:41.165Z,8.00
2017-09-10T04:29:41.171Z,8.00
2017-09-10T04:30:41.290Z,7.00
2017-09-10T04:31:41.289Z,7.00
2017-09-10T04:32:41.274Z,7.00
2017-09-10T04:33:41.271Z,10.00
2017-09-10T04:34:41.314Z,6.00
2017-09-10T04:35:41.274Z,9.00
2017-09-10T04:36:41.275Z,10.00
2017-09-10T04:37:41.228Z,6.00
2017-09-10T04:38:41.226Z,8.00
2017-09-10T04:39:41.274Z,6.00
2017-09-10T04:40:41.255Z,6.00
2017-09-10T04:41:41.195Z,7.00
2017-09-10T04:42:41.276Z,9.00
2017-09-10T04:43:41.280Z,10.00
2017-09-10T04:44:41.300Z,7.00
2017-09-10T04:45:41.257Z,4.00
2017-09-10T04:46:41.304Z,4.00
2017-09-10T04:47:41.188Z,9.00
2017-09-10T04:48:41.260Z,12.00
2017-09-10T04:49:41.239Z,4.00
2017-09-10T04:50:41.262Z,4.00
2017-09-10T04:51:41.160Z,5.00
2017-09-10T04:52:41.175Z,13.00
2017-09-10T04:53:41.206Z,3.00
2017-09-10T04:54:41.188Z,3.00
2017-09-10T04:55:41.192Z,2.00
2017-09-10T04:56:41.185Z,6.00
2017-09-10T04:57:41.166Z,5.00
2017-09-10T04:58:41.252Z,4.00
2017-09-10T04:59:41.169Z,5.00
2017-09-10T05:00:41.168Z,5.00
2017-09-10T05:01:41.178Z,5.00
2017-09-10T05:02:41.178Z,4.00
2017-09-10T05:03:41.203Z,7.00
2017-09-10T05:04:41.237Z,7.00
2017-09-10T05:05:41.244Z,3.00
2017-09-10T05:06:41.253Z,6.00
2017-09-10T05:07:41.243Z,5.00
2017-09-10T05:08:41.210Z,5.00
2017-09-10T05:09:41.211Z,5.00
2017-09-10T05:10:41.208Z,5.00
2017-09-10T05:11:41.211Z,7.00
2017-09-10T05:12:41.188Z,7.00
2017-09-10T05:13:41.249Z,5.00
2017-09-10T05:14:41.214Z,4.00
2017-09-10T05:15:41.217Z,4.00
2017-09-10T05:16:41.249Z,8.00
2017-09-10T05:17:41.186Z,6.00
2017-09-10T05:18:41.215Z,5.00
2017-09-10T05:19:41.254Z,4.00
2017-09-10T05:20:41.189Z,5.00
2017-09-10T05:21:41.356Z,5.00
2017-09-10T05:22:41.197Z,5.00
2017-09-10T05:23:41.233Z,6.00
2017-09-10T05:24:41.297Z,6.00
2017-09-10T05:25:41.237Z,4.00
2017-09-10T05:26:41.258Z,4.00
2017-09-10T05:27:41.268Z,5.00
2017-09-10T05:28:41.298Z,5.00
2017-09-10T05:29:41.254Z,5.00
2017-09-10T05:30:42.128Z,8.00
2017-09-10T05:31:41.255Z,4.00
2017-09-10T05:32:41.233Z,3.00
2017-09-10T05:33:41.256Z,10.00
2017-09-10T05:34:41.234Z,4.00
2017-09-10T05:35:41.213Z,7.00
2017-09-10T05:36:41.258Z,5.00
2017-09-10T05:37:41.298Z,3.00
2017-09-10T05:38:41.225Z,3.00
2017-09-10T05:39:41.240Z,12.00
2017-09-10T05:40:41.266Z,4.00
2017-09-10T05:41:41.312Z,5.00
2017-09-10T05:42:41.263Z,6.00
2017-09-10T05:43:41.314Z,11.00
2017-09-10T05:44:41.313Z,4.00
2017-09-10T05:45:41.270Z,5.00
2017-09-10T05:46:41.318Z,6.00
2017-09-10T05:47:41.342Z,6.00
2017-09-10T05:48:41.254Z,4.00
2017-09-10T05:49:41.314Z,3.00
2017-09-10T05:50:41.261Z,4.00
2017-09-10T05:51:41.168Z,5.00
2017-09-10T05:52:41.291Z,4.00
2017-09-10T05:53:41.187Z,5.00
2017-09-10T05:54:41.185Z,4.00
2017-09-10T05:55:41.223Z,3.00
2017-09-10T05:56:41.198Z,8.00
2017-09-10T05:57:41.243Z,3.00
2017-09-10T05:58:41.210Z,5.00
2017-09-10T05:59:41.242Z,5.00
2017-09-10T06:00:41.241Z,10.00
2017-09-10T06:01:41.221Z,3.00
2017-09-10T06:02:41.252Z,6.00
2017-09-10T06:03:41.218Z,6.00
2017-09-10T06:04:41.224Z,5.00
2017-09-10T06:05:41.242Z,4.00
2017-09-10T06:06:41.223Z,6.00
2017-09-10T06:07:41.276Z,13.00
2017-09-10T06:08:41.259Z,5.00
2017-09-10T06:09:41.223Z,5.00
2017-09-10T06:10:41.225Z,3.00
2017-09-10T06:11:41.245Z,4.00
2017-09-10T06:12:41.292Z,4.00
2017-09-10T06:13:41.327Z,3.00
2017-09-10T06:14:41.291Z,12.00
2017-09-10T06:15:41.287Z,2.00
2017-09-10T06:16:41.337Z,14.00
2017-09-10T06:17:41.233Z,5.00
2017-09-10T06:18:41.328Z,4.00
2017-09-10T06:19:41.336Z,5.00
2017-09-10T06:20:41.334Z,3.00
2017-09-10T06:21:41.251Z,3.00
2017-09-10T06:22:41.327Z,4.00
2017-09-10T06:23:41.322Z,3.00
2017-09-10T06:24:41.328Z,4.00
2017-09-10T06:25:41.327Z,4.00
2017-09-10T06:26:41.236Z,12.00
2017-09-10T06:27:41.322Z,4.00
2017-09-10T06:28:41.262Z,2.00
2017-09-10T06:29:41.305Z,3.00
2017-09-10T06:30:41.307Z,5.00
2017-09-10T06:31:41.296Z,11.00
2017-09-10T06:32:41.297Z,4.00
2017-09-10T06:33:41.370Z,11.00
2017-09-10T06:34:41.301Z,5.00
2017-09-10T06:35:41.303Z,3.00
2017-09-10T06:36:41.297Z,4.00
2017-09-10T06:37:41.343Z,5.00
2017-09-10T06:38:41.298Z,5.00
2017-09-10T06:39:41.298Z,5.00
2017-09-10T06:40:41.262Z,5.00
2017-09-10T06:41:41.313Z,3.00
2017-09-10T06:42:41.353Z,9.00
2017-09-10T06:43:41.316Z,3.00
2017-09-10T06:44:41.345Z,4.00
2017-09-10T06:45:41.304Z,2.00
2017-09-10T06:46:41.350Z,6.00
2017-09-10T06:47:41.355Z,4.00
2017-09-10T06:48:41.351Z,3.00
2017-09-10T06:49:41.271Z,4.00
2017-09-10T06:50:41.373Z,4.00
2017-09-10T06:51:41.274Z,13.00
2017-09-10T06:52:41.307Z,0.00
2017-09-10T06:53:41.328Z,2.00
2017-09-10T06:54:41.321Z,1.00
2017-09-10T06:55:41.286Z,3.00
2017-09-10T06:56:41.343Z,3.00
2017-09-10T06:57:41.353Z,1.00
2017-09-10T06:58:41.343Z,1.00
2017-09-10T06:59:41.316Z,1.00
2017-09-10T07:00:41.352Z,2.00
2017-09-10T07:01:41.277Z,1.00
2017-09-10T07:02:41.254Z,3.00
2017-09-10T07:03:41.255Z,7.00
2017-09-10T07:04:41.281Z,7.00
2017-09-10T07:05:41.253Z,2.00
2017-09-10T07:06:41.314Z,1.00
2017-09-10T07:07:41.279Z,1.00
2017-09-10T07:08:41.318Z,1.00
2017-09-10T07:09:41.316Z,6.00
2017-09-10T07:10:41.313Z,0.00
2017-09-10T07:11:41.294Z,2.00
2017-09-10T07:12:41.351Z,2.00
2017-09-10T07:13:41.363Z,1.00
2017-09-10T07:14:41.267Z,4.00
2017-09-10T07:15:41.360Z,2.00
2017-09-10T07:16:41.321Z,6.00
2017-09-10T07:17:41.270Z,1.00
2017-09-10T07:18:41.273Z,2.00
2017-09-10T07:19:41.316Z,1.00
2017-09-10T07:20:41.324Z,2.00
2017-09-10T07:21:41.232Z,1.00
2017-09-10T07:22:41.251Z,0.00
2017-09-10T07:23:41.330Z,3.00
2017-09-10T07:24:41.290Z,1.00
2017-09-10T07:25:41.246Z,1.00
2017-09-10T07:26:41.318Z,2.00
2017-09-10T07:27:41.251Z,1.00
2017-09-10T07:28:41.263Z,2.00
2017-09-10T07:29:41.226Z,1.00
2017-09-10T07:30:41.267Z,2.00
2017-09-10T07:31:41.296Z,2.00
2017-09-10T07:32:41.252Z,1.00
2017-09-10T07:33:41.297Z,1.00
2017-09-10T07:34:41.279Z,1.00
2017-09-10T07:35:41.303Z,0.00
2017-09-10T07:36:41.301Z,7.00
2017-09-10T07:37:41.270Z,1.00
2017-09-10T07:38:41.298Z,0.00
2017-09-10T07:39:41.301Z,9.00
2017-09-10T07:40:41.314Z,0.00
2017-09-10T07:41:41.297Z,1.00
2017-09-10T07:42:41.335Z,7.00
2017-09-10T07:43:41.378Z,6.00
2017-09-10T07:44:41.384Z,1.00
2017-09-10T07:45:41.288Z,5.00
2017-09-10T07:46:41.317Z,1.00
2017-09-10T07:47:41.316Z,2.00
2017-09-10T07:48:41.321Z,7.00
2017-09-10T07:49:41.292Z,1.00
2017-09-10T07:50:41.382Z,2.00
2017-09-10T07:51:41.288Z,1.00
2017-09-10T07:52:41.348Z,1.00
2017-09-10T07:53:41.342Z,1.00
2017-09-10T07:54:41.323Z,7.00
2017-09-10T07:55:41.343Z,2.00
2017-09-10T07:56:41.368Z,4.00
2017-09-10T07:57:41.392Z,5.00
2017-09-10T07:58:41.351Z,2.00
2017-09-10T07:59:41.392Z,5.00
2017-09-10T08:00:41.391Z,1.00
2017-09-10T08:01:41.306Z,5.00
2017-09-10T08:02:41.321Z,1.00
2017-09-10T08:03:41.290Z,4.00
2017-09-10T08:04:41.289Z,1.00
2017-09-10T08:05:41.257Z,2.00
2017-09-10T08:06:41.291Z,6.00
2017-09-10T08:07:41.320Z,5.00
2017-09-10T08:08:41.303Z,1.00
2017-09-10T08:09:41.315Z,5.00
2017-09-10T08:10:41.267Z,3.00
2017-09-10T08:11:41.389Z,2.00
2017-09-10T08:12:41.298Z,7.00
2017-09-10T08:13:41.304Z,1.00
2017-09-10T08:14:41.322Z,1.00
2017-09-10T08:15:41.301Z,2.00
2017-09-10T08:16:41.367Z,5.00
2017-09-10T08:17:41.354Z,1.00
2017-09-10T08:18:41.308Z,2.00
2017-09-10T08:19:41.300Z,1.00
2017-09-10T08:20:41.364Z,1.00
2017-09-10T08:21:41.304Z,5.00
2017-09-10T08:22:41.327Z,4.00
2017-09-10T08:23:41.409Z,1.00
2017-09-10T08:24:41.369Z,1.00
2017-09-10T08:25:41.372Z,1.00
2017-09-10T08:26:41.326Z,2.00
2017-09-10T08:27:41.411Z,1.00
2017-09-10T08:28:41.372Z,0.00
2017-09-10T08:29:41.311Z,1.00
2017-09-10T08:30:41.308Z,3.00
2017-09-10T08:31:41.375Z,1.00
2017-09-10T08:32:41.372Z,1.00
2017-09-10T08:33:41.394Z,1.00
2017-09-10T08:34:41.373Z,5.00
2017-09-10T08:35:41.315Z,2.00
2017-09-10T08:36:41.370Z,5.00
2017-09-10T08:37:41.409Z,1.00
2017-09-10T08:38:41.414Z,1.00
2017-09-10T08:39:41.314Z,1.00
2017-09-10T08:40:41.351Z,1.00
2017-09-10T08:41:41.283Z,1.00
2017-09-10T08:42:41.324Z,0.00
2017-09-10T08:43:41.338Z,7.00
2017-09-10T08:44:41.326Z,6.00
2017-09-10T08:45:41.307Z,1.00
2017-09-10T08:46:41.342Z,8.00
2017-09-10T08:47:41.377Z,3.00
2017-09-10T08:48:41.287Z,1.00
2017-09-10T08:49:41.347Z,5.00
2017-09-10T08:50:41.339Z,2.00
2017-09-10T08:51:41.382Z,2.00
2017-09-10T08:52:41.428Z,9.00
2017-09-10T08:53:41.383Z,7.00
2017-09-10T08:54:41.432Z,1.00
2017-09-10T08:55:41.362Z,3.00
2017-09-10T08:56:41.409Z,5.00
2017-09-10T08:57:41.435Z,1.00
2017-09-10T08:58:41.365Z,1.00
2017-09-10T08:59:41.366Z,1.00
2017-09-10T09:00:41.409Z,3.00
2017-09-10T09:01:41.318Z,1.00
2017-09-10T09:02:41.334Z,1.00
2017-09-10T09:03:41.305Z,6.00
2017-09-10T09:04:41.278Z,7.00
2017-09-10T09:05:41.358Z,2.00
2017-09-10T09:06:41.295Z,4.00
2017-09-10T09:07:41.308Z,1.00
2017-09-10T09:08:41.335Z,2.00
2017-09-10T09:09:41.354Z,1.00
2017-09-10T09:10:41.353Z,6.00
2017-09-10T09:11:41.357Z,7.00
2017-09-10T09:12:41.386Z,2.00
2017-09-10T09:13:41.327Z,2.00
2017-09-10T09:14:41.390Z,1.00
2017-09-10T09:15:41.327Z,6.00
2017-09-10T09:16:41.414Z,1.00
2017-09-10T09:17:41.353Z,4.00
2017-09-10T09:18:41.358Z,2.00
2017-09-10T09:19:41.394Z,1.00
2017-09-10T09:20:41.333Z,2.00
2017-09-10T09:21:41.352Z,0.00
2017-09-10T09:22:41.421Z,2.00
2017-09-10T09:23:41.372Z,6.00
2017-09-10T09:24:41.374Z,1.00
2017-09-10T09:25:41.469Z,2.00
2017-09-10T09:26:41.442Z,5.00
2017-09-10T09:27:41.403Z,3.00
2017-09-10T09:28:41.361Z,2.00
2017-09-10T09:29:41.377Z,2.00
2017-09-10T09:30:41.440Z,2.00
2017-09-10T09:31:41.382Z,3.00
2017-09-10T09:32:41.386Z,3.00
2017-09-10T09:33:41.412Z,3.00
2017-09-10T09:34:41.447Z,1.00
2017-09-10T09:35:41.384Z,1.00
2017-09-10T09:36:41.416Z,4.00
2017-09-10T09:37:41.385Z,2.00
2017-09-10T09:38:41.475Z,1.00
2017-09-10T09:39:41.407Z,1.00
2017-09-10T09:40:41.410Z,3.00
2017-09-10T09:41:41.412Z,5.00
2017-09-10T09:42:41.409Z,2.00
2017-09-10T09:43:41.457Z,1.00
2017-09-10T09:44:41.392Z,5.00
2017-09-10T09:45:41.391Z,1.00
2017-09-10T09:46:41.408Z,2.00
2017-09-10T09:47:41.357Z,1.00
2017-09-10T09:48:41.590Z,1.00
2017-09-10T09:49:41.457Z,1.00
2017-09-10T09:50:41.463Z,0.00
2017-09-10T09:51:41.358Z,1.00
2017-09-10T09:52:41.453Z,0.00
2017-09-10T09:53:41.355Z,1.00
2017-09-10T09:54:41.391Z,1.00
2017-09-10T09:55:41.441Z,2.00
2017-09-10T09:56:41.408Z,3.00
2017-09-10T09:57:41.421Z,2.00
2017-09-10T09:58:41.375Z,1.00
2017-09-10T09:59:41.425Z,1.00
2017-09-10T10:00:41.364Z,4.00
2017-09-10T10:01:41.412Z,4.00
2017-09-10T10:02:41.414Z,2.00
2017-09-10T10:03:41.455Z,1.00
2017-09-10T10:04:41.455Z,6.00
2017-09-10T10:05:41.419Z,1.00
2017-09-10T10:06:41.450Z,0.00
2017-09-10T10:07:41.463Z,4.00
2017-09-10T10:08:41.401Z,3.00
2017-09-10T10:09:41.467Z,1.00
2017-09-10T10:10:41.399Z,5.00
2017-09-10T10:11:41.462Z,3.00
2017-09-10T10:12:41.474Z,1.00
2017-09-10T10:13:41.429Z,2.00
2017-09-10T10:14:41.478Z,2.00
2017-09-10T10:15:41.507Z,2.00
2017-09-10T10:16:41.381Z,0.00
2017-09-10T10:17:41.501Z,1.00
2017-09-10T10:18:41.454Z,4.00
2017-09-10T10:19:41.432Z,1.00
2017-09-10T10:20:41.383Z,0.00
2017-09-10T10:21:41.371Z,3.00
2017-09-10T10:22:41.462Z,6.00
2017-09-10T10:23:41.465Z,1.00
2017-09-10T10:24:41.412Z,1.00
2017-09-10T10:25:41.416Z,1.00
2017-09-10T10:26:41.377Z,5.00
2017-09-10T10:27:41.464Z,1.00
2017-09-10T10:28:41.443Z,1.00
2017-09-10T10:29:41.399Z,3.00
2017-09-10T10:30:41.377Z,1.00
2017-09-10T10:31:41.435Z,1.00
2017-09-10T10:32:41.414Z,2.00
2017-09-10T10:33:41.438Z,1.00
2017-09-10T10:34:41.409Z,1.00
2017-09-10T10:35:41.404Z,1.00
2017-09-10T10:36:41.445Z,1.00
2017-09-10T10:37:41.482Z,1.00
2017-09-10T10:38:41.421Z,1.00
2017-09-10T10:39:41.476Z,2.00
2017-09-10T10:40:41.416Z,1.00
2017-09-10T10:41:41.496Z,2.00
2017-09-10T10:42:41.448Z,1.00
2017-09-10T10:43:41.596Z,3.00
2017-09-10T10:44:41.448Z,1.00
2017-09-10T10:45:41.443Z,1.00
2017-09-10T10:46:41.499Z,1.00
2017-09-10T10:47:41.494Z,4.00
2017-09-10T10:48:41.502Z,0.00
2017-09-10T10:49:41.447Z,7.00
2017-09-10T10:50:41.477Z,4.00
2017-09-10T10:51:41.427Z,2.00
2017-09-10T10:52:41.451Z,5.00
2017-09-10T10:53:41.458Z,2.00
2017-09-10T10:54:41.395Z,2.00
2017-09-10T10:55:41.493Z,5.00
2017-09-10T10:56:41.481Z,0.00
2017-09-10T10:57:41.434Z,2.00
2017-09-10T10:58:41.396Z,2.00
2017-09-10T11:00:41.402Z,0.00
2017-09-10T11:01:41.499Z,2.00
2017-09-10T11:02:41.468Z,0.00
2017-09-10T11:03:41.457Z,3.00
2017-09-10T11:04:41.436Z,2.00
2017-09-10T11:05:41.408Z,1.00
2017-09-10T11:06:41.425Z,1.00
2017-09-10T11:07:41.526Z,1.00
2017-09-10T11:08:41.507Z,1.00
2017-09-10T11:09:41.505Z,1.00
2017-09-10T11:10:41.484Z,1.00
2017-09-10T11:11:41.423Z,2.00
2017-09-10T11:12:41.424Z,1.00
2017-09-10T11:13:41.438Z,1.00
2017-09-10T11:14:41.409Z,0.00
2017-09-10T11:15:41.469Z,0.00
2017-09-10T11:16:41.493Z,1.00
2017-09-10T11:17:41.538Z,1.00
2017-09-10T11:18:41.494Z,2.00
2017-09-10T11:19:41.521Z,0.00
2017-09-10T11:20:41.426Z,2.00
2017-09-10T11:21:41.466Z,0.00
2017-09-10T11:22:41.514Z,3.00
2017-09-10T11:23:41.450Z,1.00
2017-09-10T11:24:41.450Z,1.00
2017-09-10T11:25:41.465Z,2.00
2017-09-10T11:26:41.413Z,1.00
2017-09-10T11:27:41.519Z,1.00
2017-09-10T11:28:41.518Z,2.00
2017-09-10T11:29:41.522Z,1.00
2017-09-10T11:30:41.519Z,0.00
2017-09-10T11:31:41.433Z,0.00
2017-09-10T11:32:41.437Z,1.00
2017-09-10T11:33:41.465Z,1.00
2017-09-10T11:34:41.455Z,1.00
2017-09-10T11:35:41.503Z,1.00
2017-09-10T11:36:41.510Z,1.00
2017-09-10T11:37:41.489Z,1.00
2017-09-10T11:38:41.506Z,1.00
2017-09-10T11:39:41.415Z,2.00
2017-09-10T11:40:41.488Z,1.00
2017-09-10T11:41:41.454Z,1.00
2017-09-10T11:42:41.429Z,0.00
2017-09-10T11:43:41.426Z,1.00
2017-09-10T11:44:41.532Z,2.00
2017-09-10T11:45:41.485Z,1.00
2017-09-10T11:46:41.484Z,1.00
2017-09-10T11:47:41.531Z,1.00
2017-09-10T11:48:41.533Z,1.00
2017-09-10T11:49:41.553Z,3.00
2017-09-10T11:50:41.461Z,1.00
2017-09-10T11:51:41.529Z,3.00
2017-09-10T11:52:41.506Z,1.00
2017-09-10T11:53:41.531Z,1.00
2017-09-10T11:54:41.468Z,1.00
2017-09-10T11:55:41.531Z,1.00
2017-09-10T11:56:41.535Z,1.00
2017-09-10T11:58:41.471Z,2.00
2017-09-10T11:59:41.499Z,1.00
2017-09-10T12:00:41.520Z,2.00
2017-09-10T12:01:41.469Z,2.00
2017-09-10T12:02:41.473Z,0.00
2017-09-10T12:03:41.537Z,1.00
2017-09-10T12:04:41.536Z,1.00
2017-09-10T12:05:41.491Z,1.00
2017-09-10T12:06:41.540Z,1.00
2017-09-10T12:07:41.505Z,1.00
2017-09-10T12:08:41.503Z,1.00
2017-09-10T12:09:41.536Z,1.00
2017-09-10T12:10:41.543Z,1.00
2017-09-10T12:11:41.495Z,2.00
2017-09-10T12:12:41.509Z,1.00
2017-09-10T12:13:41.505Z,1.00
2017-09-10T12:14:41.541Z,2.00
2017-09-10T12:15:41.505Z,3.00
2017-09-10T12:16:41.529Z,0.00
2017-09-10T12:17:41.545Z,1.00
2017-09-10T12:18:41.507Z,1.00
2017-09-10T12:19:41.504Z,3.00
2017-09-10T12:20:41.478Z,1.00
2017-09-10T12:21:41.482Z,2.00
2017-09-10T12:22:41.452Z,0.00
2017-09-10T12:23:41.423Z,3.00
2017-09-10T12:24:41.431Z,6.00
2017-09-10T12:25:41.460Z,1.00
2017-09-10T12:26:41.535Z,1.00
2017-09-10T12:27:41.446Z,1.00
2017-09-10T12:28:41.469Z,2.00
2017-09-10T12:29:41.441Z,0.00
2017-09-10T12:30:41.477Z,1.00
2017-09-10T12:31:41.485Z,1.00
2017-09-10T12:32:41.509Z,2.00
2017-09-10T12:33:41.512Z,1.00
2017-09-10T12:34:41.455Z,1.00
2017-09-10T12:35:41.561Z,2.00
2017-09-10T12:36:41.490Z,1.00
2017-09-10T12:37:41.569Z,1.00
2017-09-10T12:38:41.495Z,1.00
2017-09-10T12:39:41.559Z,1.00
2017-09-10T12:40:41.510Z,1.00
2017-09-10T12:41:41.555Z,1.00
2017-09-10T12:42:41.492Z,2.00
2017-09-10T12:43:41.516Z,2.00
2017-09-10T12:44:41.481Z,2.00
2017-09-10T12:45:41.453Z,0.00
2017-09-10T12:46:41.453Z,1.00
2017-09-10T12:47:41.520Z,1.00
2017-09-10T12:48:41.456Z,1.00
2017-09-10T12:49:41.507Z,1.00
2017-09-10T12:50:41.515Z,3.00
2017-09-10T12:51:41.518Z,2.00
2017-09-10T12:52:41.455Z,1.00
2017-09-10T12:53:41.435Z,1.00
2017-09-10T12:54:41.440Z,1.00
2017-09-10T12:55:41.496Z,1.00
2017-09-10T12:56:41.464Z,2.00
2017-09-10T12:57:41.461Z,1.00
2017-09-10T12:58:41.487Z,1.00
2017-09-10T13:00:41.482Z,1.00
2017-09-10T13:01:41.442Z,0.00
2017-09-10T13:02:41.525Z,2.00
2017-09-10T13:03:41.535Z,1.00
2017-09-10T13:04:41.576Z,1.00
2017-09-10T13:05:41.491Z,0.00
2017-09-10T13:06:41.574Z,1.00
2017-09-10T13:07:41.573Z,0.00
2017-09-10T13:08:41.480Z,0.00
2017-09-10T13:09:41.539Z,1.00
2017-09-10T13:10:41.531Z,0.00
2017-09-10T13:11:41.491Z,1.00
2017-09-10T13:12:41.611Z,0.00
2017-09-10T13:13:41.582Z,1.00
2017-09-10T13:14:41.534Z,1.00
2017-09-10T13:15:41.519Z,1.00
2017-09-10T13:16:41.586Z,0.00
2017-09-10T13:17:41.564Z,2.00
2017-09-10T13:18:41.501Z,1.00